createdAt,value
2022-11-25T00:00:10.284Z,-1.91
2022-11-25T00:02:43.123Z,-2.00
2022-11-25T00:05:10.171Z,-2.13
2022-11-25T00:07:37.381Z,-2.17
2022-11-25T00:10:08.302Z,-2.41
2022-11-25T00:12:35.052Z,-2.35
2022-11-25T00:15:02.021Z,-2.27
2022-11-25T00:17:28.891Z,-2.27
2022-11-25T00:19:57.160Z,-2.21
2022-11-25T00:22:26.090Z,-2.24
2022-11-25T00:24:52.816Z,-2.06
2022-11-25T00:27:19.833Z,-2.03
2022-11-25T00:29:46.562Z,-2.07
2022-11-25T00:32:13.435Z,-2.06
2022-11-25T00:34:40.182Z,-2.05
2022-11-25T00:37:11.504Z,-2.17
2022-11-25T00:39:38.256Z,-2.18
2022-11-25T00:42:05.110Z,-2.37
2022-11-25T00:44:32.171Z,-2.16
2022-11-25T00:47:00.505Z,-2.06
2022-11-25T00:49:27.992Z,-2.18
2022-11-25T00:51:55.321Z,-2.14
2022-11-25T00:54:23.605Z,-2.05
2022-11-25T00:56:50.493Z,-2.14
2022-11-25T00:59:17.997Z,-2.16
2022-11-25T01:01:44.923Z,-2.39
2022-11-25T01:04:12.193Z,-2.36
2022-11-25T01:06:39.117Z,-2.35
2022-11-25T01:09:07.615Z,-2.31
2022-11-25T01:11:35.830Z,-2.32
2022-11-25T01:14:02.718Z,-2.37
2022-11-25T01:16:30.431Z,-2.31
2022-11-25T01:19:00.124Z,-2.23
2022-11-25T01:21:29.938Z,-2.24
2022-11-25T01:23:59.605Z,-2.34
2022-11-25T01:26:26.521Z,-2.34
2022-11-25T01:28:56.765Z,-2.33
2022-11-25T01:31:25.821Z,-2.30
2022-11-25T01:33:54.783Z,-2.30
2022-11-25T01:36:24.288Z,-2.28
2022-11-25T01:38:53.701Z,-2.49
2022-11-25T01:41:22.046Z,-2.58
2022-11-25T01:44:12.929Z,-2.47
2022-11-25T01:46:47.950Z,-2.47
2022-11-25T01:49:17.675Z,-2.49
2022-11-25T01:51:48.482Z,-2.49
2022-11-25T01:54:19.563Z,-2.50
2022-11-25T01:56:51.445Z,-2.53
2022-11-25T01:59:20.106Z,-2.58
2022-11-25T02:01:46.908Z,-2.60
2022-11-25T02:04:17.393Z,-2.58
2022-11-25T02:06:50.760Z,-2.55
2022-11-25T02:09:18.837Z,-2.46
2022-11-25T02:11:46.282Z,-2.35
2022-11-25T02:14:14.694Z,-2.36
2022-11-25T02:16:43.138Z,-2.42
2022-11-25T02:19:25.798Z,-2.49
2022-11-25T02:21:56.898Z,-2.54
2022-11-25T02:24:30.203Z,-2.53
2022-11-25T02:26:58.762Z,-2.61
2022-11-25T02:29:26.246Z,-2.51
2022-11-25T02:31:53.199Z,-2.52
2022-11-25T02:34:20.018Z,-2.56
2022-11-25T02:36:48.412Z,-2.60
2022-11-25T02:39:15.245Z,-2.60
2022-11-25T02:41:46.560Z,-2.72
2022-11-25T02:44:15.046Z,-2.79
2022-11-25T02:46:42.928Z,-2.77
2022-11-25T02:49:10.547Z,-2.90
2022-11-25T02:51:39.909Z,-2.72
2022-11-25T02:54:07.227Z,-2.65
2022-11-25T02:56:36.529Z,-2.60
2022-11-25T02:59:03.864Z,-2.57
2022-11-25T03:01:33.462Z,-2.56
2022-11-25T03:04:00.344Z,-2.54
2022-11-25T03:06:27.869Z,-2.55
2022-11-25T03:08:54.635Z,-2.50
2022-11-25T03:11:21.542Z,-2.46
2022-11-25T03:13:49.452Z,-2.38
2022-11-25T03:16:16.258Z,-2.43
2022-11-25T03:18:44.741Z,-2.45
2022-11-25T03:21:11.513Z,-2.47
2022-11-25T03:23:40.486Z,-2.48
2022-11-25T03:26:07.415Z,-2.44
2022-11-25T03:28:34.374Z,-2.33
2022-11-25T03:31:01.134Z,-2.33
2022-11-25T03:33:28.156Z,-2.26
2022-11-25T03:35:56.271Z,-2.29
2022-11-25T03:38:24.285Z,-2.38
2022-11-25T03:40:51.019Z,-2.41
2022-11-25T03:43:17.965Z,-2.42
2022-11-25T03:45:47.971Z,-2.48
2022-11-25T03:48:14.886Z,-2.56
2022-11-25T03:50:41.749Z,-2.55
2022-11-25T03:53:10.171Z,-2.57
2022-11-25T03:55:37.028Z,-2.56
2022-11-25T03:58:03.846Z,-2.55
2022-11-25T04:00:30.770Z,-2.55
2022-11-25T04:02:57.799Z,-2.63
2022-11-25T04:05:25.709Z,-2.58
2022-11-25T04:07:57.704Z,-2.55
2022-11-25T04:10:26.439Z,-2.58
2022-11-25T04:12:53.686Z,-2.58
2022-11-25T04:15:20.625Z,-2.56
2022-11-25T04:17:47.439Z,-2.55
2022-11-25T04:20:14.678Z,-2.47
2022-11-25T04:22:41.524Z,-2.56
2022-11-25T04:25:09.223Z,-2.70
2022-11-25T04:27:37.362Z,-2.55
2022-11-25T04:30:06.083Z,-2.34
2022-11-25T04:32:32.847Z,-2.38
2022-11-25T04:34:59.858Z,-2.27
2022-11-25T04:37:26.612Z,-2.24
2022-11-25T04:39:53.366Z,-2.20
2022-11-25T04:42:20.378Z,-2.25
2022-11-25T04:45:07.285Z,-2.34
2022-11-25T04:47:35.990Z,-2.36
2022-11-25T04:50:03.450Z,-2.45
2022-11-25T04:52:30.210Z,-2.41
2022-11-25T04:54:56.946Z,-2.43
2022-11-25T04:57:23.856Z,-2.45
2022-11-25T04:59:52.073Z,-2.51
2022-11-25T05:02:21.589Z,-2.50
2022-11-25T05:04:49.700Z,-2.61
2022-11-25T05:07:19.160Z,-2.55
2022-11-25T05:09:46.221Z,-2.57
2022-11-25T05:12:18.216Z,-2.59
2022-11-25T05:14:45.406Z,-2.60
2022-11-25T05:17:17.126Z,-2.64
2022-11-25T05:19:43.981Z,-2.64
2022-11-25T05:22:11.834Z,-2.65
2022-11-25T05:24:39.078Z,-2.68
2022-11-25T05:27:06.277Z,-2.67
2022-11-25T05:29:34.293Z,-2.69
2022-11-25T05:32:01.218Z,-2.68
2022-11-25T05:34:29.508Z,-2.68
2022-11-25T05:36:58.021Z,-2.71
2022-11-25T05:39:25.027Z,-2.67
2022-11-25T05:41:51.801Z,-2.63
2022-11-25T05:44:22.953Z,-2.56
2022-11-25T05:46:50.153Z,-2.53
2022-11-25T05:49:18.055Z,-2.49
2022-11-25T05:51:46.755Z,-2.54
2022-11-25T05:54:14.701Z,-2.50
2022-11-25T05:56:41.601Z,-2.46
2022-11-25T05:59:09.793Z,-2.48
2022-11-25T06:01:36.557Z,-2.41
2022-11-25T06:04:06.361Z,-2.47
2022-11-25T06:06:33.231Z,-2.50
2022-11-25T06:09:01.733Z,-2.46
2022-11-25T06:11:28.624Z,-2.47
2022-11-25T06:13:57.215Z,-2.54
2022-11-25T06:16:25.429Z,-2.50
2022-11-25T06:18:52.929Z,-2.54
2022-11-25T06:21:20.307Z,-2.51
2022-11-25T06:23:47.404Z,-2.47
2022-11-25T06:26:17.147Z,-2.50
2022-11-25T06:28:44.269Z,-2.57
2022-11-25T06:31:14.041Z,-2.71
2022-11-25T06:33:41.503Z,-2.77
2022-11-25T06:36:10.539Z,-2.79
2022-11-25T06:38:37.316Z,-2.74
2022-11-25T06:41:06.061Z,-2.68
2022-11-25T06:43:34.316Z,-2.70
2022-11-25T06:46:05.739Z,-2.68
2022-11-25T06:48:33.042Z,-2.68
2022-11-25T06:51:02.558Z,-2.62
2022-11-25T06:53:30.603Z,-2.62
2022-11-25T06:56:11.283Z,-2.71
2022-11-25T06:58:40.313Z,-2.83
2022-11-25T07:01:13.007Z,-2.68
2022-11-25T07:03:40.609Z,-2.64
2022-11-25T07:06:08.724Z,-2.53
2022-11-25T07:08:36.824Z,-2.50
2022-11-25T07:11:05.774Z,-2.52
2022-11-25T07:13:34.235Z,-2.52
2022-11-25T07:16:05.354Z,-2.64
2022-11-25T07:18:36.200Z,-2.61
2022-11-25T07:21:06.239Z,-2.52
2022-11-25T07:23:33.994Z,-2.48
2022-11-25T07:26:07.159Z,-2.40
2022-11-25T07:28:36.520Z,-2.39
2022-11-25T07:34:02.164Z,-2.29
2022-11-25T07:36:30.586Z,-2.26
2022-11-25T07:39:00.134Z,-2.21
2022-11-25T07:41:28.611Z,-2.12
2022-11-25T07:43:58.467Z,-2.02
2022-11-25T07:46:29.354Z,-1.94
2022-11-25T07:49:01.794Z,-1.83
2022-11-25T07:51:31.810Z,-1.70
2022-11-25T07:54:00.575Z,-1.54
2022-11-25T07:56:29.817Z,-1.39
2022-11-25T07:58:57.782Z,-1.25
2022-11-25T08:01:27.000Z,-1.11
2022-11-25T08:03:56.025Z,-0.91
2022-11-25T08:06:26.867Z,-0.71
2022-11-25T08:08:54.663Z,-0.56
2022-11-25T08:11:24.958Z,-0.40
2022-11-25T08:13:54.283Z,-0.30
2022-11-25T08:16:23.535Z,-0.16
2022-11-25T08:18:52.372Z,-0.03
2022-11-25T08:21:20.573Z,0.02
2022-11-25T08:23:49.004Z,0.10
2022-11-25T08:26:18.863Z,0.28
2022-11-25T08:28:47.451Z,0.36
2022-11-25T08:31:18.326Z,0.46
2022-11-25T08:33:48.752Z,0.66
2022-11-25T08:36:19.528Z,0.83
2022-11-25T08:38:48.508Z,0.97
2022-11-25T08:41:18.356Z,1.08
2022-11-25T08:43:45.657Z,1.15
2022-11-25T08:46:15.795Z,1.23
2022-11-25T08:48:42.938Z,1.30
2022-11-25T08:51:14.622Z,1.29
2022-11-25T08:53:43.686Z,1.30
2022-11-25T08:56:11.213Z,1.19
2022-11-25T08:58:39.006Z,1.13
2022-11-25T09:01:07.220Z,1.15
2022-11-25T09:03:36.177Z,1.31
2022-11-25T09:06:04.037Z,1.56
2022-11-25T09:08:32.578Z,1.71
2022-11-25T09:11:01.662Z,1.64
2022-11-25T09:13:29.764Z,1.86
2022-11-25T09:15:58.265Z,1.99
2022-11-25T09:18:25.599Z,2.13
2022-11-25T09:20:54.490Z,2.33
2022-11-25T09:23:21.542Z,2.50
2022-11-25T09:25:51.585Z,2.60
2022-11-25T09:28:21.204Z,2.54
2022-11-25T09:30:49.872Z,2.50
2022-11-25T09:33:35.546Z,2.34
2022-11-25T09:36:05.413Z,2.28
2022-11-25T09:38:34.886Z,2.23
2022-11-25T09:41:08.432Z,2.17
2022-11-25T09:43:51.771Z,2.10
2022-11-25T09:46:35.448Z,2.06
2022-11-25T09:49:11.866Z,2.01
2022-11-25T09:51:55.402Z,1.96
2022-11-25T09:54:29.847Z,1.90
2022-11-25T09:57:01.821Z,1.77
2022-11-25T09:59:39.132Z,1.75
2022-11-25T10:02:27.317Z,1.55
2022-11-25T10:05:03.270Z,1.64
2022-11-25T10:07:36.835Z,1.62
2022-11-25T10:10:07.131Z,1.75
2022-11-25T10:12:38.858Z,1.92
2022-11-25T10:15:16.519Z,2.07
2022-11-25T10:17:47.112Z,2.19
2022-11-25T10:20:20.249Z,2.27
2022-11-25T10:22:50.388Z,2.32
2022-11-25T10:25:22.101Z,2.39
2022-11-25T10:27:53.033Z,2.45
2022-11-25T10:30:23.222Z,2.46
2022-11-25T10:32:57.880Z,2.47
2022-11-25T10:35:34.054Z,2.53
2022-11-25T10:38:03.581Z,2.57
2022-11-25T10:40:33.479Z,2.57
2022-11-25T10:43:02.792Z,2.58
2022-11-25T10:45:41.005Z,2.63
2022-11-25T10:48:19.630Z,2.42
2022-11-25T10:51:03.073Z,2.52
2022-11-25T10:53:30.055Z,2.64
2022-11-25T10:56:00.446Z,2.72
2022-11-25T10:58:31.295Z,2.82
2022-11-25T11:01:21.024Z,2.89
2022-11-25T11:03:53.334Z,3.03
2022-11-25T11:06:32.808Z,3.20
2022-11-25T11:08:59.833Z,3.42
2022-11-25T11:11:28.174Z,3.48
2022-11-25T11:14:12.393Z,3.60
2022-11-25T11:16:42.526Z,3.68
2022-11-25T11:19:21.915Z,3.73
2022-11-25T11:21:51.314Z,3.67
2022-11-25T11:24:27.271Z,3.67
2022-11-25T11:27:06.797Z,3.59
2022-11-25T11:29:34.094Z,3.53
2022-11-25T11:32:04.832Z,3.52
2022-11-25T11:34:53.164Z,3.68
2022-11-25T11:37:34.040Z,3.86
2022-11-25T11:40:25.067Z,3.97
2022-11-25T11:43:02.719Z,4.09
2022-11-25T11:45:42.513Z,4.15
2022-11-25T11:48:21.946Z,4.22
2022-11-25T11:50:51.362Z,4.25
2022-11-25T11:53:25.782Z,4.25
2022-11-25T11:56:32.992Z,4.26
2022-11-25T11:58:59.905Z,4.26
2022-11-25T12:01:41.983Z,4.22
2022-11-25T12:04:17.907Z,4.21
2022-11-25T12:06:54.384Z,4.22
2022-11-25T12:09:26.044Z,4.28
2022-11-25T12:12:00.547Z,4.26
2022-11-25T12:14:39.358Z,4.24
2022-11-25T12:17:14.721Z,4.17
2022-11-25T12:19:55.001Z,4.04
2022-11-25T12:22:28.613Z,3.89
2022-11-25T12:25:04.364Z,3.78
2022-11-25T12:27:35.391Z,3.64
2022-11-25T12:30:06.303Z,3.53
2022-11-25T12:32:52.029Z,3.48
2022-11-25T12:35:31.247Z,3.46
2022-11-25T12:38:05.263Z,3.43
2022-11-25T12:40:35.591Z,3.43
2022-11-25T12:43:15.219Z,3.39
2022-11-25T12:45:47.012Z,3.35
2022-11-25T12:48:18.575Z,3.29
2022-11-25T12:51:03.063Z,3.24
2022-11-25T12:53:38.780Z,3.13
2022-11-25T12:56:14.335Z,3.18
2022-11-25T12:58:54.020Z,3.20
2022-11-25T13:01:46.749Z,3.21
2022-11-25T13:04:50.692Z,3.19
2022-11-25T13:07:34.306Z,3.15
2022-11-25T13:10:37.966Z,3.13
2022-11-25T13:13:26.150Z,3.10
2022-11-25T13:15:55.206Z,3.06
2022-11-25T13:18:29.078Z,2.96
2022-11-25T13:20:57.272Z,2.95
2022-11-25T13:23:32.156Z,2.93
2022-11-25T13:26:38.222Z,2.91
2022-11-25T13:30:01.554Z,2.91
2022-11-25T13:32:36.214Z,2.87
2022-11-25T13:35:51.545Z,2.88
2022-11-25T13:38:57.137Z,2.91
2022-11-25T13:41:34.128Z,2.93
2022-11-25T13:44:06.776Z,2.95
2022-11-25T13:46:40.527Z,2.92
2022-11-25T13:49:28.639Z,2.88
2022-11-25T13:52:00.368Z,2.86
2022-11-25T13:54:37.700Z,2.81
2022-11-25T13:57:26.379Z,2.80
2022-11-25T13:59:57.554Z,2.80
2022-11-25T14:02:41.080Z,2.79
2022-11-25T14:05:27.002Z,2.88
2022-11-25T14:08:11.175Z,2.97
2022-11-25T14:10:51.676Z,3.08
2022-11-25T14:13:46.202Z,3.13
2022-11-25T14:16:36.286Z,3.19
2022-11-25T14:22:32.555Z,3.12
2022-11-25T14:25:16.740Z,3.06
2022-11-25T14:27:48.933Z,2.99
2022-11-25T14:30:17.685Z,2.90
2022-11-25T14:32:55.847Z,2.79
2022-11-25T14:35:30.533Z,2.69
2022-11-25T14:38:03.506Z,2.53
2022-11-25T14:40:37.569Z,2.44
2022-11-25T14:43:18.096Z,2.42
2022-11-25T14:45:46.412Z,2.35
2022-11-25T14:48:14.904Z,2.30
2022-11-25T14:50:54.667Z,2.16
2022-11-25T14:53:22.712Z,2.11
2022-11-25T14:55:50.372Z,2.01
2022-11-25T14:58:20.853Z,1.93
2022-11-25T15:00:53.825Z,1.82
2022-11-25T15:03:20.953Z,1.70
2022-11-25T15:05:56.551Z,1.56
2022-11-25T15:08:25.128Z,1.40
2022-11-25T15:10:58.238Z,1.22
2022-11-25T15:13:33.600Z,0.97
2022-11-25T15:16:08.689Z,0.90
2022-11-25T15:18:36.684Z,0.97
2022-11-25T15:21:06.129Z,0.91
2022-11-25T15:23:37.462Z,0.77
2022-11-25T15:26:15.717Z,0.56
2022-11-25T15:28:46.786Z,0.36
2022-11-25T15:31:20.677Z,0.01
2022-11-25T15:33:54.552Z,-0.21
2022-11-25T15:36:23.811Z,-0.11
2022-11-25T15:38:51.462Z,-0.25
2022-11-25T15:41:32.952Z,-0.15
2022-11-25T15:44:03.851Z,-0.17
2022-11-25T15:46:35.900Z,-0.23
2022-11-25T15:49:06.152Z,-0.30
2022-11-25T15:51:38.978Z,-0.28
2022-11-25T15:54:17.280Z,-0.37
2022-11-25T15:56:46.643Z,-0.56
2022-11-25T15:59:46.289Z,-0.60
2022-11-25T16:02:38.142Z,-0.67
2022-11-25T16:05:25.035Z,-0.66
2022-11-25T16:08:20.585Z,-0.68
2022-11-25T16:10:58.263Z,-0.67
2022-11-25T16:13:35.894Z,-0.72
2022-11-25T16:16:15.429Z,-0.72
2022-11-25T16:18:50.790Z,-0.81
2022-11-25T16:21:20.446Z,-0.91
2022-11-25T16:23:51.763Z,-0.91
2022-11-25T16:26:24.949Z,-0.97
2022-11-25T16:28:55.920Z,-1.00
2022-11-25T16:31:25.042Z,-1.02
2022-11-25T16:33:55.127Z,-1.08
2022-11-25T16:36:22.192Z,-1.08
2022-11-25T16:38:52.451Z,-1.09
2022-11-25T16:41:22.286Z,-1.10
2022-11-25T16:43:49.475Z,-1.14
2022-11-25T16:46:18.853Z,-1.11
2022-11-25T16:48:47.645Z,-1.08
2022-11-25T16:51:16.767Z,-1.03
2022-11-25T16:53:44.523Z,-1.00
2022-11-25T16:56:15.023Z,-0.99
2022-11-25T16:58:43.126Z,-1.08
2022-11-25T17:01:34.819Z,-1.15
2022-11-25T17:04:03.163Z,-1.14
2022-11-25T17:06:30.168Z,-1.14
2022-11-25T17:08:57.281Z,-1.09
2022-11-25T17:11:28.311Z,-1.12
2022-11-25T17:13:58.446Z,-1.10
2022-11-25T17:16:33.148Z,-1.18
2022-11-25T17:19:00.761Z,-1.20
2022-11-25T17:21:29.412Z,-1.25
2022-11-25T17:24:16.387Z,-1.30
2022-11-25T17:26:46.967Z,-1.29
2022-11-25T17:29:16.882Z,-1.30
2022-11-25T17:31:51.305Z,-1.35
2022-11-25T17:34:21.950Z,-1.41
2022-11-25T17:36:50.395Z,-1.47
2022-11-25T17:39:17.196Z,-1.48
2022-11-25T17:41:46.068Z,-1.51
2022-11-25T17:44:24.217Z,-1.53
2022-11-25T17:46:51.229Z,-1.58
2022-11-25T17:49:18.319Z,-1.69
2022-11-25T17:51:45.777Z,-1.64
2022-11-25T17:54:14.891Z,-1.66
2022-11-25T17:56:46.486Z,-1.69
2022-11-25T17:59:23.487Z,-1.63
2022-11-25T18:01:50.451Z,-1.64
2022-11-25T18:04:21.481Z,-1.68
2022-11-25T18:06:48.471Z,-1.70
2022-11-25T18:09:18.447Z,-1.74
2022-11-25T18:11:48.488Z,-1.73
2022-11-25T18:14:25.395Z,-1.67
2022-11-25T18:16:53.319Z,-1.64
2022-11-25T18:19:21.164Z,-1.64
2022-11-25T18:21:47.983Z,-1.65
2022-11-25T18:24:14.800Z,-1.71
2022-11-25T18:26:45.118Z,-1.80
2022-11-25T18:29:17.384Z,-1.82
2022-11-25T18:31:44.241Z,-1.75
2022-11-25T18:34:16.554Z,-1.70
2022-11-25T18:36:45.280Z,-1.70
2022-11-25T18:39:12.515Z,-1.74
2022-11-25T18:41:42.001Z,-1.80
2022-11-25T18:44:25.645Z,-1.87
2022-11-25T18:46:53.782Z,-1.86
2022-11-25T18:49:21.312Z,-1.90
2022-11-25T18:51:48.154Z,-1.91
2022-11-25T18:54:15.210Z,-1.86
2022-11-25T18:56:43.301Z,-1.88
2022-11-25T18:59:17.134Z,-1.83
2022-11-25T19:01:49.626Z,-1.78
2022-11-25T19:04:16.883Z,-1.76
2022-11-25T19:06:44.078Z,-1.80
2022-11-25T19:09:11.424Z,-1.78
2022-11-25T19:11:41.764Z,-1.85
2022-11-25T19:14:13.322Z,-1.90
2022-11-25T19:16:43.199Z,-1.96
2022-11-25T19:19:14.260Z,-2.02
2022-11-25T19:21:41.716Z,-1.88
2022-11-25T19:24:12.389Z,-1.88
2022-11-25T19:26:44.096Z,-1.95
2022-11-25T19:29:17.531Z,-1.98
2022-11-25T19:31:47.180Z,-2.07
2022-11-25T19:34:24.662Z,-2.14
2022-11-25T19:36:51.860Z,-2.23
2022-11-25T19:39:18.813Z,-2.26
2022-11-25T19:41:47.227Z,-2.11
2022-11-25T19:44:14.240Z,-2.01
2022-11-25T19:47:13.730Z,-1.96
2022-11-25T19:49:33.413Z,-1.98
2022-11-25T19:52:00.361Z,-2.00
2022-11-25T19:54:27.367Z,-1.99
2022-11-25T19:56:54.320Z,-1.95
2022-11-25T19:59:21.453Z,-1.87
2022-11-25T20:01:51.041Z,-1.85
2022-11-25T20:04:20.964Z,-1.84
2022-11-25T20:06:48.794Z,-1.87
2022-11-25T20:09:15.821Z,-1.89
2022-11-25T20:11:43.250Z,-1.97
2022-11-25T20:14:10.514Z,-1.89
2022-11-25T20:16:40.963Z,-1.96
2022-11-25T20:19:16.271Z,-1.88
2022-11-25T20:21:43.461Z,-1.88
2022-11-25T20:24:14.356Z,-1.89
2022-11-25T20:26:42.548Z,-1.84
2022-11-25T20:29:14.969Z,-1.82
2022-11-25T20:31:41.870Z,-1.76
2022-11-25T20:34:12.363Z,-1.74
2022-11-25T20:36:40.929Z,-1.74
2022-11-25T20:39:17.322Z,-1.69
2022-11-25T20:41:48.196Z,-1.71
2022-11-25T20:44:15.039Z,-1.82
2022-11-25T20:46:42.025Z,-1.71
2022-11-25T20:49:20.525Z,-1.72
2022-11-25T20:51:47.575Z,-1.71
2022-11-25T20:54:14.535Z,-1.90
2022-11-25T20:56:41.563Z,-1.98
2022-11-25T20:59:19.294Z,-2.11
2022-11-25T21:01:46.359Z,-1.92
2022-11-25T21:04:14.675Z,-1.90
2022-11-25T21:06:42.245Z,-1.93
2022-11-25T21:09:16.638Z,-1.93
2022-11-25T21:11:44.672Z,-1.90
2022-11-25T21:14:14.573Z,-2.06
2022-11-25T21:16:41.701Z,-2.23
2022-11-25T21:19:08.580Z,-2.24
2022-11-25T21:21:39.566Z,-2.11
2022-11-25T21:24:16.663Z,-2.04
2022-11-25T21:26:43.683Z,-1.88
2022-11-25T21:29:14.825Z,-1.85
2022-11-25T21:31:41.857Z,-1.88
2022-11-25T21:34:12.080Z,-1.90
2022-11-25T21:36:41.530Z,-1.91
2022-11-25T21:39:17.051Z,-1.85
2022-11-25T21:41:44.020Z,-1.80
2022-11-25T21:44:20.873Z,-1.84
2022-11-25T21:46:47.730Z,-1.65
2022-11-25T21:49:14.583Z,-1.61
2022-11-25T21:51:42.955Z,-1.56
2022-11-25T21:54:10.238Z,-1.47
2022-11-25T21:56:37.703Z,-1.43
2022-11-25T21:59:07.627Z,-1.41
2022-11-25T22:01:34.465Z,-1.54
2022-11-25T22:04:02.504Z,-1.39
2022-11-25T22:06:30.376Z,-1.36
2022-11-25T22:08:58.811Z,-1.27
2022-11-25T22:11:30.629Z,-1.26
2022-11-25T22:13:59.350Z,-1.23
2022-11-25T22:16:30.137Z,-1.30
2022-11-25T22:18:58.059Z,-1.25
2022-11-25T22:21:24.991Z,-1.29
2022-11-25T22:23:52.033Z,-1.35
2022-11-25T22:26:27.263Z,-1.46
2022-11-25T22:28:54.485Z,-1.61
2022-11-25T22:31:23.226Z,-1.49
2022-11-25T22:33:50.571Z,-1.37
2022-11-25T22:36:30.145Z,-1.33
2022-11-25T22:38:58.961Z,-1.26
2022-11-25T22:41:27.186Z,-1.23
2022-11-25T22:43:55.333Z,-1.17
2022-11-25T22:46:22.205Z,-1.12
2022-11-25T22:48:49.428Z,-1.22
2022-11-25T22:51:18.379Z,-1.26
2022-11-25T22:53:45.507Z,-1.16
2022-11-25T22:56:17.556Z,-1.09
2022-11-25T22:58:46.492Z,-1.14
2022-11-25T23:01:16.689Z,-1.02
2022-11-25T23:03:44.605Z,-1.04
2022-11-25T23:06:13.070Z,-1.15
2022-11-25T23:08:40.267Z,-1.23
2022-11-25T23:11:14.662Z,-1.23
2022-11-25T23:13:41.165Z,-1.01
2022-11-25T23:16:12.268Z,-1.09
2022-11-25T23:18:40.845Z,-1.23
2022-11-25T23:21:16.593Z,-1.12
2022-11-25T23:23:43.434Z,-1.05
2022-11-25T23:26:11.549Z,-1.02
2022-11-25T23:28:38.483Z,-1.06
2022-11-25T23:31:06.085Z,-1.02
2022-11-25T23:33:37.059Z,-1.04
2022-11-25T23:36:09.251Z,-1.13
2022-11-25T23:38:41.491Z,-1.33
2022-11-25T23:41:14.510Z,-1.10
2022-11-25T23:43:41.326Z,-1.15
2022-11-25T23:46:11.201Z,-1.22
2022-11-25T23:48:39.984Z,-1.24
2022-11-25T23:51:08.353Z,-1.26
2022-11-25T23:53:39.165Z,-1.28
2022-11-25T23:56:06.845Z,-1.28
2022-11-25T23:58:33.822Z,-1.31
